| time (UTC) | temp F | wind direction | speed MPH | gust MPH | rain 1hr in | rain 24hr in | rain mn in | humidity % | barometer mb |
| 20260509204503 | 76 | 275 | 2.0 | 9.0 | 0.00 | 0.11 | 0.11 | 46 | 1006.3 |
| 20260509203100 | 76 | 262 | 3.0 | 9.0 | 0.00 | 0.11 | 0.11 | 48 | 1006.4 |
| 20260509201608 | 76 | 152 | 5.0 | 12.0 | 0.00 | 0.11 | 0.11 | 48 | 1006.7 |
| 20260509200107 | 76 | 238 | 4.0 | 11.0 | 0.00 | 0.11 | 0.11 | 50 | 1006.8 |
| 20260509194554 | 76 | 255 | 2.0 | 11.0 | 0.00 | 0.11 | 0.11 | 49 | 1006.9 |
| 20260509193052 | 74 | 266 | 1.0 | 12.0 | 0.00 | 0.11 | 0.11 | 52 | 1007.0 |
| 20260509191551 | 75 | 252 | 2.0 | 10.0 | 0.00 | 0.11 | 0.11 | 51 | 1007.1 |
| 20260509190049 | 74 | 269 | 2.0 | 10.0 | 0.00 | 0.11 | 0.11 | 53 | 1007.2 |
| 20260509184558 | 73 | 132 | 4.0 | 7.0 | 0.00 | 0.11 | 0.11 | 53 | 1007.4 |
| 20260509183047 | 74 | 215 | 1.0 | 8.0 | 0.00 | 0.11 | 0.11 | 54 | 1007.4 |
| 20260509181555 | 73 | 192 | 5.0 | 11.0 | 0.00 | 0.11 | 0.11 | 53 | 1007.5 |
| 20260509180043 | 73 | 248 | 1.0 | 5.0 | 0.00 | 0.11 | 0.11 | 57 | 1007.5 |
| 20260509174541 | 71 | 236 | 0.0 | 6.0 | 0.00 | 0.11 | 0.11 | 57 | 1007.4 |
| 20260509173041 | 70 | 240 | 1.0 | 7.0 | 0.00 | 0.11 | 0.11 | 59 | 1007.6 |
| 20260509171539 | 70 | 255 | 0.0 | 9.0 | 0.00 | 0.11 | 0.11 | 62 | 1007.5 |
| 20260509170039 | 69 | 59 | 0.0 | 7.0 | 0.00 | 0.11 | 0.11 | 62 | 1007.7 |
| 20260509165901 | 70 | 250 | 2.0 | 11.0 | 0.00 | 0.11 | 0.11 | 59 | 1008.4 |
| 20260509164543 | 69 | 252 | 1.0 | 10.0 | 0.00 | 0.11 | 0.11 | 61 | 1007.8 |
| 20260509163042 | 70 | 255 | 0.0 | 9.0 | 0.00 | 0.11 | 0.11 | 60 | 1007.7 |
| 20260509161542 | 71 | 108 | 0.0 | 6.0 | 0.00 | 0.11 | 0.11 | 63 | 1007.6 |
| 20260509160041 | 69 | 136 | 0.0 | 13.0 | 0.00 | 0.11 | 0.11 | 66 | 1007.5 |
| 20260509154537 | 68 | 267 | 0.0 | 9.0 | 0.00 | 0.11 | 0.11 | 66 | 1007.5 |
| 20260509153041 | 67 | 106 | 2.0 | 6.0 | 0.00 | 0.11 | 0.11 | 70 | 1007.5 |
| 20260509151528 | 65 | 160 | 2.0 | 9.0 | 0.00 | 0.11 | 0.11 | 74 | 1007.3 |
| 20260509150031 | 64 | 144 | 3.0 | 11.0 | 0.00 | 0.11 | 0.11 | 76 | 1007.3 |
| 20260509144529 | 63 | 155 | 1.0 | 11.0 | 0.00 | 0.11 | 0.11 | 78 | 1007.3 |
| 20260509143020 | 61 | 140 | 2.0 | 10.0 | 0.00 | 0.11 | 0.11 | 87 | 1007.3 |
| 20260509141516 | 59 | 77 | 3.0 | 7.0 | 0.00 | 0.11 | 0.11 | 94 | 1007.1 |
| 20260509140011 | 57 | 141 | 0.0 | 3.0 | 0.00 | 0.11 | 0.11 | 96 | 1007.1 |
| 20260509134512 | 56 | 94 | 0.0 | 9.0 | 0.00 | 0.11 | 0.11 | 97 | 1007.1 |
| 20260509133014 | 56 | 132 | 1.0 | 5.0 | 0.00 | 0.11 | 0.11 | 97 | 1007.1 |
| 20260509131511 | 55 | 155 | 0.0 | 5.0 | 0.00 | 0.11 | 0.11 | 97 | 1007.2 |
| 20260509130006 | 55 | 152 | 0.0 | 0.0 | 0.00 | 0.11 | 0.11 | 97 | 1007.1 |
| 20260509124507 | 55 | 162 | 0.0 | 0.0 | 0.00 | 0.11 | 0.11 | 98 | 1007.2 |
| 20260509123005 | 54 | 146 | 0.0 | 0.0 | 0.00 | 0.11 | 0.11 | 97 | 1007.2 |
| 20260509121514 | 54 | 164 | 0.0 | 0.0 | 0.00 | 0.11 | 0.11 | 97 | 1007.2 |
| 20260509120006 | 54 | 188 | 0.0 | 0.0 | 0.00 | 0.11 | 0.11 | 97 | 1007.3 |
| 20260509114509 | 54 | 130 | 0.0 | 0.0 | 0.01 | 0.11 | 0.11 | 97 | 1007.1 |
| 20260509113003 | 54 | 130 | 0.0 | 0.0 | 0.01 | 0.11 | 0.11 | 97 | 1007.1 |
| 20260509111501 | 54 | 154 | 0.0 | 0.0 | 0.02 | 0.11 | 0.11 | 97 | 1007.1 |
| 20260509110107 | 54 | 179 | 1.0 | 4.0 | 0.03 | 0.11 | 0.11 | 97 | 1007.2 |
| 20260509110001 | 54 | 153 | 1.0 | 4.0 | 0.02 | 0.10 | 0.10 | 97 | 1007.2 |
| 20260509104559 | 54 | 120 | 0.0 | 0.0 | 0.03 | 0.10 | 0.10 | 97 | 1007.0 |
| 20260509103105 | 54 | 120 | 0.0 | 0.0 | 0.03 | 0.10 | 0.10 | 96 | 1006.8 |
| 20260509101623 | 54 | 133 | 0.0 | 0.0 | 0.03 | 0.09 | 0.09 | 96 | 1007.5 |
| 20260509100058 | 54 | 133 | 0.0 | 0.0 | 0.02 | 0.08 | 0.08 | 96 | 1007.4 |
| 20260509094603 | 54 | 133 | 0.0 | 0.0 | 0.02 | 0.07 | 0.07 | 96 | 1007.4 |
| 20260509093104 | 54 | 133 | 0.0 | 0.0 | 0.03 | 0.07 | 0.07 | 96 | 1007.3 |
| 20260509091553 | 54 | 107 | 0.0 | 0.0 | 0.03 | 0.06 | 0.06 | 96 | 1007.3 |
| 20260509090100 | 54 | 107 | 0.0 | 0.0 | 0.04 | 0.06 | 0.06 | 95 | 1007.5 |
| 20260509084548 | 55 | 107 | 0.0 | 0.0 | 0.04 | 0.05 | 0.05 | 95 | 1007.9 |
| 20260509083047 | 55 | 107 | 0.0 | 0.0 | 0.03 | 0.04 | 0.04 | 95 | 1008.1 |
| 20260509081646 | 55 | 107 | 0.0 | 0.0 | 0.03 | 0.03 | 0.03 | 94 | 1008.1 |
| 20260509080045 | 55 | 78 | 0.0 | 0.0 | 0.02 | 0.02 | 0.02 | 94 | 1008.2 |
| 20260509074548 | 55 | 78 | 0.0 | 0.0 | 0.01 | 0.01 | 0.01 | 94 | 1008.1 |
| 20260509073055 | 55 | 79 | 0.0 | 0.0 | 0.01 | 0.01 | 0.01 | 93 | 1008.2 |
| 20260509071550 | 55 | 20 | 0.0 | 0.0 | 0.00 | 0.00 | 0.00 | 93 | 1008.0 |
| 20260509070043 | 55 | 285 | 0.0 | 0.0 | 0.00 | 0.00 | 0.00 | 92 | 1008.3 |
| 20260509064543 | 55 | 290 | 0.0 | 0.0 | 0.00 | 0.00 | 0.00 | 91 | 1008.6 |
| 20260509063036 | 55 | 33 | 0.0 | 0.0 | 0.00 | 0.00 | 0.00 | 90 | 1008.6 |
| 20260509061536 | 56 | 339 | 0.0 | 0.0 | 0.00 | 0.00 | 0.00 | 89 | 1008.6 |
| 20260509060038 | 56 | 338 | 0.0 | 0.0 | 0.00 | 0.00 | 0.00 | 88 | 1008.5 |
| 20260509054544 | 56 | 46 | 0.0 | 0.0 | 0.00 | 0.00 | 0.00 | 87 | 1008.5 |
| 20260509053033 | 56 | 322 | 0.0 | 0.0 | 0.00 | 0.00 | 0.00 | 86 | 1008.5 |
| 20260509051533 | 56 | 304 | 0.0 | 0.0 | 0.00 | 0.00 | 0.00 | 86 | 1008.6 |
| 20260509050031 | 56 | 30 | 0.0 | 0.0 | 0.00 | 0.00 | 0.00 | 85 | 1008.7 |
| 20260509044529 | 56 | 321 | 0.0 | 0.0 | 0.00 | 0.00 | 0.00 | 85 | 1008.6 |
| 20260509043027 | 56 | 51 | 0.0 | 0.0 | 0.00 | 0.00 | 0.00 | 85 | 1008.6 |
| 20260509041535 | 57 | 300 | 0.0 | 0.0 | 0.00 | 0.00 | 0.00 | 84 | 1008.8 |
| 20260509040024 | 57 | 319 | 0.0 | 0.0 | 0.00 | 0.00 | 0.00 | 84 | 1008.8 |
| 20260509034523 | 57 | 30 | 0.0 | 5.0 | 0.00 | 0.00 | 0.00 | 82 | 1009.0 |
| 20260509033021 | 58 | 1 | 1.0 | 6.0 | 0.00 | 0.00 | 0.00 | 79 | 1009.0 |
| 20260509031526 | 59 | 292 | 0.0 | 5.0 | 0.00 | 0.00 | 0.00 | 74 | 1009.1 |
| 20260509030016 | 61 | 324 | 0.0 | 2.0 | 0.00 | 0.00 | 0.00 | 66 | 1009.1 |
| 20260509024516 | 63 | 252 | 0.0 | 0.0 | 0.00 | 0.00 | 0.00 | 55 | 1008.8 |
| 20260509023019 | 63 | 181 | 0.0 | 0.0 | 0.00 | 0.00 | 0.00 | 56 | 1008.7 |
| 20260509021515 | 63 | 188 | 0.0 | 2.0 | 0.00 | 0.00 | 0.00 | 57 | 1008.8 |
| 20260509020024 | 63 | 164 | 0.0 | 2.0 | 0.00 | 0.00 | 0.00 | 58 | 1008.7 |
| 20260509014518 | 63 | 245 | 0.0 | 1.0 | 0.00 | 0.00 | 0.00 | 62 | 1008.7 |
| 20260509013021 | 64 | 248 | 0.0 | 1.0 | 0.00 | 0.00 | 0.00 | 58 | 1008.6 |
| 20260509011513 | 65 | 257 | 0.0 | 9.0 | 0.00 | 0.00 | 0.00 | 52 | 1008.8 |
| 20260509010013 | 66 | 233 | 0.0 | 4.0 | 0.00 | 0.00 | 0.00 | 53 | 1008.7 |
| 20260509004517 | 66 | 247 | 0.0 | 7.0 | 0.00 | 0.00 | 0.00 | 49 | 1008.6 |
| 20260509003011 | 66 | 241 | 0.0 | 3.0 | 0.00 | 0.00 | 0.00 | 48 | 1008.3 |
| 20260509001511 | 66 | 125 | 0.0 | 4.0 | 0.00 | 0.00 | 0.00 | 47 | 1008.4 |
| 20260509000010 | 67 | 243 | 1.0 | 9.0 | 0.00 | 0.00 | 0.00 | 46 | 1008.4 |
| 20260508234510 | 67 | 238 | 2.0 | 9.0 | 0.00 | 0.00 | 0.00 | 46 | 1008.5 |
| 20260508233009 | 67 | 195 | 1.0 | 6.0 | 0.00 | 0.00 | 0.00 | 47 | 1008.4 |
| 20260508231508 | 67 | 219 | 0.0 | 8.0 | 0.00 | 0.00 | 0.00 | 46 | 1008.5 |
| 20260508230008 | 68 | 153 | 1.0 | 8.0 | 0.00 | 0.00 | 0.00 | 45 | 1008.4 |
| 20260508224511 | 68 | 172 | 0.0 | 10.0 | 0.00 | 0.00 | 0.00 | 45 | 1008.3 |
| 20260508223006 | 69 | 141 | 1.0 | 12.0 | 0.00 | 0.00 | 0.00 | 44 | 1008.2 |
| 20260508221508 | 69 | 212 | 3.0 | 9.0 | 0.00 | 0.00 | 0.00 | 43 | 1008.3 |
| 20260508220005 | 69 | 205 | 3.0 | 13.0 | 0.00 | 0.00 | 0.00 | 42 | 1008.1 |
| 20260508214513 | 70 | 64 | 3.0 | 12.0 | 0.00 | 0.00 | 0.00 | 42 | 1008.3 |
| 20260508213002 | 71 | 238 | 5.0 | 11.0 | 0.00 | 0.00 | 0.00 | 41 | 1008.4 |
| 20260508211600 | 71 | 147 | 4.0 | 14.0 | 0.00 | 0.00 | 0.00 | 41 | 1008.5 |
| 20260508210059 | 71 | 214 | 6.0 | 12.0 | 0.00 | 0.00 | 0.00 | 39 | 1008.7 |